sensor_id;sensor_type;location;lat;lon;timestamp;pressure;altitude;pressure_sealevel;temperature;humidity
18569;BME280;14780;48.316;-1.050;2023-04-23T00:01:32;98077.63;;;23.64;37.71
18569;BME280;14780;48.316;-1.050;2023-04-23T00:04:20;98083.38;;;23.63;37.72
18569;BME280;14780;48.316;-1.050;2023-04-23T00:07:06;98082.56;;;23.62;37.70
18569;BME280;14780;48.316;-1.050;2023-04-23T00:09:55;98082.56;;;23.62;37.77
18569;BME280;14780;48.316;-1.050;2023-04-23T00:12:41;98077.41;;;23.61;37.80
18569;BME280;14780;48.316;-1.050;2023-04-23T00:15:27;98073.84;;;23.60;37.80
18569;BME280;14780;48.316;-1.050;2023-04-23T00:18:12;98063.22;;;23.59;37.78
18569;BME280;14780;48.316;-1.050;2023-04-23T00:20:57;98067.06;;;23.58;37.85
18569;BME280;14780;48.316;-1.050;2023-04-23T00:23:41;98063.53;;;23.57;37.89
18569;BME280;14780;48.316;-1.050;2023-04-23T00:26:26;98064.94;;;23.55;37.83
18569;BME280;14780;48.316;-1.050;2023-04-23T00:29:10;98059.47;;;23.55;37.99
18569;BME280;14780;48.316;-1.050;2023-04-23T00:31:56;98053.19;;;23.54;38.03
18569;BME280;14780;48.316;-1.050;2023-04-23T00:34:41;98053.50;;;23.53;38.05
18569;BME280;14780;48.316;-1.050;2023-04-23T00:37:26;98060.06;;;23.52;38.17
18569;BME280;14780;48.316;-1.050;2023-04-23T00:40:10;98055.41;;;23.52;38.12
18569;BME280;14780;48.316;-1.050;2023-04-23T00:42:56;98055.41;;;23.52;38.23
18569;BME280;14780;48.316;-1.050;2023-04-23T00:45:41;98045.09;;;23.49;38.25
18569;BME280;14780;48.316;-1.050;2023-04-23T00:48:27;98039.63;;;23.49;38.29
18569;BME280;14780;48.316;-1.050;2023-04-23T00:51:13;98043.75;;;23.47;38.32
18569;BME280;14780;48.316;-1.050;2023-04-23T00:54:00;98032.00;;;23.46;38.38
18569;BME280;14780;48.316;-1.050;2023-04-23T00:56:44;98027.38;;;23.47;38.33
18569;BME280;14780;48.316;-1.050;2023-04-23T00:59:30;98025.22;;;23.44;38.34
18569;BME280;14780;48.316;-1.050;2023-04-23T01:02:16;98011.06;;;23.42;38.37
18569;BME280;14780;48.316;-1.050;2023-04-23T01:05:01;98020.34;;;23.41;38.40
18569;BME280;14780;48.316;-1.050;2023-04-23T01:07:47;98020.63;;;23.39;38.44
18569;BME280;14780;48.316;-1.050;2023-04-23T01:10:32;98015.78;;;23.37;38.45
18569;BME280;14780;48.316;-1.050;2023-04-23T01:13:17;97993.94;;;23.37;38.54
18569;BME280;14780;48.316;-1.050;2023-04-23T01:16:02;97994.22;;;23.35;38.47
18569;BME280;14780;48.316;-1.050;2023-04-23T01:18:47;97993.44;;;23.35;38.58
18569;BME280;14780;48.316;-1.050;2023-04-23T01:21:32;97987.97;;;23.35;38.59
18569;BME280;14780;48.316;-1.050;2023-04-23T01:24:17;97985.53;;;23.33;38.56
18569;BME280;14780;48.316;-1.050;2023-04-23T01:27:02;97982.81;;;23.33;38.53
18569;BME280;14780;48.316;-1.050;2023-04-23T01:29:47;97971.38;;;23.31;38.58
18569;BME280;14780;48.316;-1.050;2023-04-23T01:32:33;97977.63;;;23.32;38.67
18569;BME280;14780;48.316;-1.050;2023-04-23T01:35:18;97965.09;;;23.31;38.76
18569;BME280;14780;48.316;-1.050;2023-04-23T01:38:03;97965.09;;;23.31;38.83
18569;BME280;14780;48.316;-1.050;2023-04-23T01:40:49;97960.75;;;23.30;38.66
18569;BME280;14780;48.316;-1.050;2023-04-23T01:43:34;97955.59;;;23.28;38.84
18569;BME280;14780;48.316;-1.050;2023-04-23T01:46:20;97950.13;;;23.28;38.79
18569;BME280;14780;48.316;-1.050;2023-04-23T01:49:05;97950.94;;;23.29;38.86
18569;BME280;14780;48.316;-1.050;2023-04-23T01:51:50;97945.50;;;23.29;38.89
18569;BME280;14780;48.316;-1.050;2023-04-23T01:54:35;97922.84;;;23.28;38.89
18569;BME280;14780;48.316;-1.050;2023-04-23T01:57:20;97920.38;;;23.27;39.08
18569;BME280;14780;48.316;-1.050;2023-04-23T02:00:10;97920.38;;;23.27;39.01
18569;BME280;14780;48.316;-1.050;2023-04-23T02:02:55;97913.84;;;23.28;38.99
18569;BME280;14780;48.316;-1.050;2023-04-23T02:05:40;97914.94;;;23.27;38.97
18569;BME280;14780;48.316;-1.050;2023-04-23T02:08:26;97907.84;;;23.26;39.05
18569;BME280;14780;48.316;-1.050;2023-04-23T02:11:11;97905.13;;;23.26;39.04
18569;BME280;14780;48.316;-1.050;2023-04-23T02:13:56;97900.78;;;23.25;39.04
18569;BME280;14780;48.316;-1.050;2023-04-23T02:16:40;97894.53;;;23.24;39.07
18569;BME280;14780;48.316;-1.050;2023-04-23T02:19:25;97894.81;;;23.23;38.99
18569;BME280;14780;48.316;-1.050;2023-04-23T02:22:11;97892.09;;;23.23;39.02
18569;BME280;14780;48.316;-1.050;2023-04-23T02:24:56;97880.34;;;23.22;39.02
18569;BME280;14780;48.316;-1.050;2023-04-23T02:27:42;97883.41;;;23.21;39.09
18569;BME280;14780;48.316;-1.050;2023-04-23T02:30:27;97877.94;;;23.21;39.11
18569;BME280;14780;48.316;-1.050;2023-04-23T02:33:12;97875.50;;;23.19;39.06
18569;BME280;14780;48.316;-1.050;2023-04-23T02:35:57;97874.66;;;23.19;39.10
18569;BME280;14780;48.316;-1.050;2023-04-23T02:38:41;97867.59;;;23.18;39.16
18569;BME280;14780;48.316;-1.050;2023-04-23T02:41:27;97858.63;;;23.17;39.19
18569;BME280;14780;48.316;-1.050;2023-04-23T02:44:12;97860.53;;;23.17;39.21
18569;BME280;14780;48.316;-1.050;2023-04-23T02:46:57;97862.47;;;23.16;39.20
18569;BME280;14780;48.316;-1.050;2023-04-23T02:49:41;97853.44;;;23.16;39.21
18569;BME280;14780;48.316;-1.050;2023-04-23T02:52:29;97854.81;;;23.13;39.18
18569;BME280;14780;48.316;-1.050;2023-04-23T02:55:13;97843.13;;;23.13;39.18
18569;BME280;14780;48.316;-1.050;2023-04-23T02:57:58;97834.94;;;23.13;39.30
18569;BME280;14780;48.316;-1.050;2023-04-23T03:00:43;97831.66;;;23.11;39.31
18569;BME280;14780;48.316;-1.050;2023-04-23T03:03:29;97824.59;;;23.10;39.21
18569;BME280;14780;48.316;-1.050;2023-04-23T03:06:18;97828.16;;;23.10;39.25
18569;BME280;14780;48.316;-1.050;2023-04-23T03:09:03;97821.06;;;23.09;39.27
18569;BME280;14780;48.316;-1.050;2023-04-23T03:11:48;97820.25;;;23.09;39.10
18569;BME280;14780;48.316;-1.050;2023-04-23T03:14:33;97811.56;;;23.07;39.28
18569;BME280;14780;48.316;-1.050;2023-04-23T03:17:17;97815.41;;;23.06;39.26
18569;BME280;14780;48.316;-1.050;2023-04-23T03:20:02;97815.97;;;23.03;39.29
18569;BME280;14780;48.316;-1.050;2023-04-23T03:22:46;97812.97;;;23.04;39.27
18569;BME280;14780;48.316;-1.050;2023-04-23T03:25:31;97815.97;;;23.03;39.36
18569;BME280;14780;48.316;-1.050;2023-04-23T03:28:16;97814.34;;;23.02;39.23
18569;BME280;14780;48.316;-1.050;2023-04-23T03:31:01;97804.56;;;23.01;39.34
18569;BME280;14780;48.316;-1.050;2023-04-23T03:33:46;97809.50;;;22.99;39.25
18569;BME280;14780;48.316;-1.050;2023-04-23T03:36:30;97798.59;;;22.99;39.33
18569;BME280;14780;48.316;-1.050;2023-04-23T03:39:15;97802.41;;;22.98;39.33
18569;BME280;14780;48.316;-1.050;2023-04-23T03:42:01;97795.34;;;22.97;39.39
18569;BME280;14780;48.316;-1.050;2023-04-23T03:44:46;97793.44;;;22.97;39.37
18569;BME280;14780;48.316;-1.050;2023-04-23T03:47:31;97788.25;;;22.96;39.36
18569;BME280;14780;48.316;-1.050;2023-04-23T03:50:15;97782.31;;;22.94;39.31
18569;BME280;14780;48.316;-1.050;2023-04-23T03:53:01;97785.03;;;22.94;39.39
18569;BME280;14780;48.316;-1.050;2023-04-23T03:55:46;97785.81;;;22.94;39.43
18569;BME280;14780;48.316;-1.050;2023-04-23T03:58:30;97780.38;;;22.94;39.43
18569;BME280;14780;48.316;-1.050;2023-04-23T04:01:15;97776.84;;;22.94;39.39
18569;BME280;14780;48.316;-1.050;2023-04-23T04:04:00;97786.94;;;22.93;39.41
18569;BME280;14780;48.316;-1.050;2023-04-23T04:06:45;97773.63;;;22.92;39.43
18569;BME280;14780;48.316;-1.050;2023-04-23T04:09:30;97767.84;;;22.93;39.40
18569;BME280;14780;48.316;-1.050;2023-04-23T04:12:15;97756.94;;;22.93;39.42
18569;BME280;14780;48.316;-1.050;2023-04-23T04:15:00;97756.94;;;22.93;39.40
18569;BME280;14780;48.316;-1.050;2023-04-23T04:17:46;97754.53;;;22.92;39.46
18569;BME280;14780;48.316;-1.050;2023-04-23T04:20:31;97754.53;;;22.92;39.48
18569;BME280;14780;48.316;-1.050;2023-04-23T04:23:15;97748.25;;;22.91;39.44
18569;BME280;14780;48.316;-1.050;2023-04-23T04:26:00;97746.63;;;22.90;39.43
18569;BME280;14780;48.316;-1.050;2023-04-23T04:28:45;97741.97;;;22.91;39.48
18569;BME280;14780;48.316;-1.050;2023-04-23T04:31:31;97740.34;;;22.90;39.44
18569;BME280;14780;48.316;-1.050;2023-04-23T04:34:16;97741.19;;;22.90;39.37
18569;BME280;14780;48.316;-1.050;2023-04-23T04:37:01;97736.00;;;22.89;39.24
18569;BME280;14780;48.316;-1.050;2023-04-23T04:39:46;97728.94;;;22.88;39.35
18569;BME280;14780;48.316;-1.050;2023-04-23T04:42:31;97725.38;;;22.87;39.38
18569;BME280;14780;48.316;-1.050;2023-04-23T04:45:16;97719.16;;;22.87;39.54
18569;BME280;14780;48.316;-1.050;2023-04-23T04:48:00;97730.06;;;22.87;39.42
18569;BME280;14780;48.316;-1.050;2023-04-23T04:50:45;97717.53;;;22.86;39.43
18569;BME280;14780;48.316;-1.050;2023-04-23T04:53:30;97722.97;;;22.86;39.39
18569;BME280;14780;48.316;-1.050;2023-04-23T04:56:14;97733.06;;;22.85;39.40
18569;BME280;14780;48.316;-1.050;2023-04-23T04:58:59;97722.78;;;22.82;39.43
18569;BME280;14780;48.316;-1.050;2023-04-23T05:01:45;97712.66;;;22.83;39.49
18569;BME280;14780;48.316;-1.050;2023-04-23T05:04:29;97708.84;;;22.84;39.43
18569;BME280;14780;48.316;-1.050;2023-04-23T05:07:14;97701.25;;;22.81;39.43
18569;BME280;14780;48.316;-1.050;2023-04-23T05:09:59;97694.16;;;22.80;39.35
18569;BME280;14780;48.316;-1.050;2023-04-23T05:12:43;97680.53;;;22.80;39.36
18569;BME280;14780;48.316;-1.050;2023-04-23T05:15:28;97687.91;;;22.79;39.50
18569;BME280;14780;48.316;-1.050;2023-04-23T05:18:13;97673.75;;;22.77;39.39
18569;BME280;14780;48.316;-1.050;2023-04-23T05:20:58;97670.25;;;22.77;39.48
18569;BME280;14780;48.316;-1.050;2023-04-23T05:23:44;97663.16;;;22.76;39.39
18569;BME280;14780;48.316;-1.050;2023-04-23T05:26:29;97654.97;;;22.76;39.50
18569;BME280;14780;48.316;-1.050;2023-04-23T05:29:14;97645.16;;;22.75;39.37
18569;BME280;14780;48.316;-1.050;2023-04-23T05:32:03;97638.41;;;22.72;39.50
18569;BME280;14780;48.316;-1.050;2023-04-23T05:34:47;97630.22;;;22.72;39.50
18569;BME280;14780;48.316;-1.050;2023-04-23T05:37:32;97624.75;;;22.72;39.45
18569;BME280;14780;48.316;-1.050;2023-04-23T05:40:17;97619.31;;;22.72;39.47
18569;BME280;14780;48.316;-1.050;2023-04-23T05:43:02;97605.19;;;22.70;39.43
18569;BME280;14780;48.316;-1.050;2023-04-23T05:45:48;97596.72;;;22.72;39.48
18569;BME280;14780;48.316;-1.050;2023-04-23T05:48:33;97577.13;;;22.70;39.53
18569;BME280;14780;48.316;-1.050;2023-04-23T05:51:17;97568.94;;;22.70;39.38
18569;BME280;14780;48.316;-1.050;2023-04-23T05:54:02;97571.66;;;22.70;39.50
18569;BME280;14780;48.316;-1.050;2023-04-23T05:56:46;97561.56;;;22.70;39.43
18569;BME280;14780;48.316;-1.050;2023-04-23T05:59:32;97545.50;;;22.69;39.50
18569;BME280;14780;48.316;-1.050;2023-04-23T06:02:17;97541.69;;;22.70;39.38
18569;BME280;14780;48.316;-1.050;2023-04-23T06:05:01;97541.16;;;22.68;39.60
18569;BME280;14780;48.316;-1.050;2023-04-23T06:07:47;97540.84;;;22.69;39.50
18569;BME280;14780;48.316;-1.050;2023-04-23T06:10:31;97537.31;;;22.69;39.46
18569;BME280;14780;48.316;-1.050;2023-04-23T06:13:16;97510.88;;;22.69;39.51
18569;BME280;14780;48.316;-1.050;2023-04-23T06:16:01;97503.00;;;22.68;39.58
18569;BME280;14780;48.316;-1.050;2023-04-23T06:18:46;97504.91;;;22.67;39.54
18569;BME280;14780;48.316;-1.050;2023-04-23T06:21:30;97495.94;;;22.67;39.56
18569;BME280;14780;48.316;-1.050;2023-04-23T06:24:16;97465.66;;;22.68;39.55
18569;BME280;14780;48.316;-1.050;2023-04-23T06:27:00;97464.03;;;22.67;39.54
18569;BME280;14780;48.316;-1.050;2023-04-23T06:29:46;97462.09;;;22.68;39.66
18569;BME280;14780;48.316;-1.050;2023-04-23T06:32:30;97438.38;;;22.68;39.52
18569;BME280;14780;48.316;-1.050;2023-04-23T06:35:15;97436.44;;;22.69;39.69
18569;BME280;14780;48.316;-1.050;2023-04-23T06:38:00;97418.19;;;22.69;39.66
18569;BME280;14780;48.316;-1.050;2023-04-23T06:40:44;97408.69;;;22.67;39.57
18569;BME280;14780;48.316;-1.050;2023-04-23T06:43:29;97404.84;;;22.68;39.62
18569;BME280;14780;48.316;-1.050;2023-04-23T06:46:14;97388.50;;;22.68;39.56
18569;BME280;14780;48.316;-1.050;2023-04-23T06:48:59;97370.53;;;22.67;39.69
18569;BME280;14780;48.316;-1.050;2023-04-23T06:51:44;97352.56;;;22.66;39.65
18569;BME280;14780;48.316;-1.050;2023-04-23T06:54:29;97339.22;;;22.64;39.58
18569;BME280;14780;48.316;-1.050;2023-04-23T06:57:14;97320.97;;;22.65;39.59
18569;BME280;14780;48.316;-1.050;2023-04-23T06:59:59;97308.75;;;22.62;39.53
18569;BME280;14780;48.316;-1.050;2023-04-23T07:02:44;97306.31;;;22.61;39.49
18569;BME280;14780;48.316;-1.050;2023-04-23T07:05:30;97293.53;;;22.61;39.52
18569;BME280;14780;48.316;-1.050;2023-04-23T07:08:15;97289.47;;;22.59;39.40
18569;BME280;14780;48.316;-1.050;2023-04-23T07:11:01;97270.69;;;22.57;39.56
18569;BME280;14780;48.316;-1.050;2023-04-23T07:13:46;97265.25;;;22.57;39.48
18569;BME280;14780;48.316;-1.050;2023-04-23T07:16:30;97260.13;;;22.56;39.41
18569;BME280;14780;48.316;-1.050;2023-04-23T07:19:17;97270.50;;;22.54;39.42
18569;BME280;14780;48.316;-1.050;2023-04-23T07:22:02;97263.44;;;22.53;39.41
18569;BME280;14780;48.316;-1.050;2023-04-23T07:24:47;97243.59;;;22.52;39.31
18569;BME280;14780;48.316;-1.050;2023-04-23T07:27:31;97259.94;;;22.52;39.39
18569;BME280;14780;48.316;-1.050;2023-04-23T07:30:16;97249.81;;;22.53;39.35
18569;BME280;14780;48.316;-1.050;2023-04-23T07:33:01;97253.38;;;22.53;39.37
18569;BME280;14780;48.316;-1.050;2023-04-23T07:35:45;97241.16;;;22.51;39.37
18569;BME280;14780;48.316;-1.050;2023-04-23T07:38:30;97245.00;;;22.50;39.35
18569;BME280;14780;48.316;-1.050;2023-04-23T07:41:15;97240.66;;;22.49;39.29
18569;BME280;14780;48.316;-1.050;2023-04-23T07:44:00;97235.22;;;22.49;39.32
18569;BME280;14780;48.316;-1.050;2023-04-23T07:46:45;97232.50;;;22.49;39.33
18569;BME280;14780;48.316;-1.050;2023-04-23T07:49:30;97228.16;;;22.48;39.37
18569;BME280;14780;48.316;-1.050;2023-04-23T07:52:15;97211.47;;;22.49;39.41
18569;BME280;14780;48.316;-1.050;2023-04-23T07:55:00;97217.25;;;22.48;39.40
18569;BME280;14780;48.316;-1.050;2023-04-23T07:57:45;97209.88;;;22.48;39.42
18569;BME280;14780;48.316;-1.050;2023-04-23T08:00:30;97198.97;;;22.48;39.43
18569;BME280;14780;48.316;-1.050;2023-04-23T08:03:14;97202.00;;;22.47;39.41
18569;BME280;14780;48.316;-1.050;2023-04-23T08:05:59;97193.81;;;22.47;39.37
18569;BME280;14780;48.316;-1.050;2023-04-23T08:08:44;97205.25;;;22.49;39.59
18569;BME280;14780;48.316;-1.050;2023-04-23T08:11:29;97199.78;;;22.49;39.54
18569;BME280;14780;48.316;-1.050;2023-04-23T08:14:13;97211.81;;;22.48;39.50
18569;BME280;14780;48.316;-1.050;2023-04-23T08:16:58;97263.25;;;22.49;39.52
18569;BME280;14780;48.316;-1.050;2023-04-23T08:19:43;97266.81;;;22.50;39.50
18569;BME280;14780;48.316;-1.050;2023-04-23T08:22:27;97276.88;;;22.49;39.51
18569;BME280;14780;48.316;-1.050;2023-04-23T08:25:12;97279.59;;;22.49;39.58
18569;BME280;14780;48.316;-1.050;2023-04-23T08:27:57;97304.94;;;22.50;39.66
18569;BME280;14780;48.316;-1.050;2023-04-23T08:30:42;97318.25;;;22.51;39.61
18569;BME280;14780;48.316;-1.050;2023-04-23T08:33:26;97323.69;;;22.51;39.66
18569;BME280;14780;48.316;-1.050;2023-04-23T08:36:11;97343.59;;;22.52;39.66
18569;BME280;14780;48.316;-1.050;2023-04-23T08:38:55;97349.03;;;22.52;39.62
18569;BME280;14780;48.316;-1.050;2023-04-23T08:41:41;97361.56;;;22.53;39.66
18569;BME280;14780;48.316;-1.050;2023-04-23T08:44:26;97369.16;;;22.56;39.77
18569;BME280;14780;48.316;-1.050;2023-04-23T08:47:16;97379.44;;;22.59;40.13
18569;BME280;14780;48.316;-1.050;2023-04-23T08:50:03;97388.28;;;22.64;40.08
18569;BME280;14780;48.316;-1.050;2023-04-23T08:52:56;97398.28;;;22.69;39.99
18569;BME280;14780;48.316;-1.050;2023-04-23T08:55:41;97397.50;;;22.68;40.04
18569;BME280;14780;48.316;-1.050;2023-04-23T08:58:26;97406.97;;;22.71;40.10
18569;BME280;14780;48.316;-1.050;2023-04-23T09:01:12;97412.13;;;22.72;40.11
18569;BME280;14780;48.316;-1.050;2023-04-23T09:03:59;97426.28;;;22.74;40.15
18569;BME280;14780;48.316;-1.050;2023-04-23T09:06:44;97448.56;;;22.76;40.38
18569;BME280;14780;48.316;-1.050;2023-04-23T09:09:29;97457.56;;;22.77;40.49
18569;BME280;14780;48.316;-1.050;2023-04-23T09:12:14;97476.34;;;22.78;40.37
18569;BME280;14780;48.316;-1.050;2023-04-23T09:15:00;97478.75;;;22.80;40.52
18569;BME280;14780;48.316;-1.050;2023-04-23T09:17:46;97484.22;;;22.80;40.50
18569;BME280;14780;48.316;-1.050;2023-04-23T09:20:33;97501.06;;;22.82;40.48
18569;BME280;14780;48.316;-1.050;2023-04-23T09:23:20;97501.91;;;22.82;40.45
18569;BME280;14780;48.316;-1.050;2023-04-23T09:26:06;97506.53;;;22.82;40.37
18569;BME280;14780;48.316;-1.050;2023-04-23T09:28:51;97528.34;;;22.82;40.42
18569;BME280;14780;48.316;-1.050;2023-04-23T09:31:36;97535.41;;;22.83;40.49
18569;BME280;14780;48.316;-1.050;2023-04-23T09:34:22;97541.19;;;22.81;40.47
18569;BME280;14780;48.316;-1.050;2023-04-23T09:37:07;97547.44;;;22.82;40.43
18569;BME280;14780;48.316;-1.050;2023-04-23T09:39:58;97556.13;;;22.84;40.66
18569;BME280;14780;48.316;-1.050;2023-04-23T09:42:48;97570.56;;;22.84;40.56
18569;BME280;14780;48.316;-1.050;2023-04-23T09:45:33;97576.84;;;22.85;40.60
18569;BME280;14780;48.316;-1.050;2023-04-23T09:48:20;97592.09;;;22.86;40.48
18569;BME280;14780;48.316;-1.050;2023-04-23T09:51:05;97596.72;;;22.85;40.64
18569;BME280;14780;48.316;-1.050;2023-04-23T09:53:50;97609.56;;;22.85;40.69
18569;BME280;14780;48.316;-1.050;2023-04-23T09:56:35;97618.53;;;22.85;40.80
18569;BME280;14780;48.316;-1.050;2023-04-23T09:59:22;97624.81;;;22.86;40.79
18569;BME280;14780;48.316;-1.050;2023-04-23T10:02:07;97626.44;;;22.87;40.72
18569;BME280;14780;48.316;-1.050;2023-04-23T10:04:53;97634.09;;;22.85;40.66
18569;BME280;14780;48.316;-1.050;2023-04-23T10:07:38;97636.00;;;22.84;40.73
18569;BME280;14780;48.316;-1.050;2023-04-23T10:10:23;97648.53;;;22.85;40.77
18569;BME280;14780;48.316;-1.050;2023-04-23T10:13:09;97647.75;;;22.85;40.73
18569;BME280;14780;48.316;-1.050;2023-04-23T10:15:54;97657.53;;;22.86;40.89
18569;BME280;14780;48.316;-1.050;2023-04-23T10:18:40;97657.22;;;22.87;40.84
18569;BME280;14780;48.316;-1.050;2023-04-23T10:21:25;97678.75;;;22.89;40.94
18569;BME280;14780;48.316;-1.050;2023-04-23T10:24:14;97669.44;;;22.90;40.92
18569;BME280;14780;48.316;-1.050;2023-04-23T10:27:04;97664.81;;;22.90;41.03
18569;BME280;14780;48.316;-1.050;2023-04-23T10:29:54;97677.84;;;22.93;41.18
18569;BME280;14780;48.316;-1.050;2023-04-23T10:32:41;97676.44;;;22.96;41.28
18569;BME280;14780;48.316;-1.050;2023-04-23T10:35:28;97680.47;;;22.98;41.24
18569;BME280;14780;48.316;-1.050;2023-04-23T10:38:14;97677.47;;;23.00;41.42
18569;BME280;14780;48.316;-1.050;2023-04-23T10:41:01;97669.50;;;23.03;41.49
18569;BME280;14780;48.316;-1.050;2023-04-23T10:43:46;97677.56;;;23.08;41.63
18569;BME280;14780;48.316;-1.050;2023-04-23T10:46:32;97673.44;;;23.11;41.72
18569;BME280;14780;48.316;-1.050;2023-04-23T10:49:17;97669.00;;;23.15;41.83
18569;BME280;14780;48.316;-1.050;2023-04-23T10:52:11;97667.31;;;23.19;42.35
18569;BME280;14780;48.316;-1.050;2023-04-23T10:54:59;97676.81;;;23.21;42.15
18569;BME280;14780;48.316;-1.050;2023-04-23T10:58:05;97670.44;;;23.26;42.37
18569;BME280;14780;48.316;-1.050;2023-04-23T11:00:51;97665.00;;;23.26;42.29
18569;BME280;14780;48.316;-1.050;2023-04-23T11:03:43;97675.81;;;23.31;42.55
18569;BME280;14780;48.316;-1.050;2023-04-23T11:06:49;97676.22;;;23.38;42.88
18569;BME280;14780;48.316;-1.050;2023-04-23T11:15:15;97687.75;;;23.61;44.02
18569;BME280;14780;48.316;-1.050;2023-04-23T11:18:02;97678.97;;;23.64;44.02
18569;BME280;14780;48.316;-1.050;2023-04-23T11:20:47;97672.41;;;23.65;43.84
18569;BME280;14780;48.316;-1.050;2023-04-23T11:23:33;97677.84;;;23.65;44.00
18569;BME280;14780;48.316;-1.050;2023-04-23T11:26:18;97679.47;;;23.66;44.10
18569;BME280;14780;48.316;-1.050;2023-04-23T11:29:03;97683.50;;;23.69;43.99
18569;BME280;14780;48.316;-1.050;2023-04-23T11:31:50;97672.59;;;23.69;44.07
18569;BME280;14780;48.316;-1.050;2023-04-23T11:34:36;97667.91;;;23.69;43.99
18569;BME280;14780;48.316;-1.050;2023-04-23T11:37:21;97679.47;;;23.66;43.92
18569;BME280;14780;48.316;-1.050;2023-04-23T11:40:16;97679.47;;;23.66;43.95
18569;BME280;14780;48.316;-1.050;2023-04-23T11:43:03;97673.72;;;23.68;43.84
18569;BME280;14780;48.316;-1.050;2023-04-23T11:45:49;97675.63;;;23.67;43.91
18569;BME280;14780;48.316;-1.050;2023-04-23T11:48:35;97679.97;;;23.68;43.94
18569;BME280;14780;48.316;-1.050;2023-04-23T11:51:25;97670.16;;;23.67;43.66
18569;BME280;14780;48.316;-1.050;2023-04-23T11:54:10;97672.59;;;23.69;43.69
18569;BME280;14780;48.316;-1.050;2023-04-23T11:56:57;97667.91;;;23.69;43.62
18569;BME280;14780;48.316;-1.050;2023-04-23T11:59:42;97674.50;;;23.68;43.68
18569;BME280;14780;48.316;-1.050;2023-04-23T12:02:27;97675.63;;;23.67;43.64
18569;BME280;14780;48.316;-1.050;2023-04-23T12:05:12;97672.88;;;23.67;43.42
18569;BME280;14780;48.316;-1.050;2023-04-23T12:08:24;97679.16;;;23.68;43.38
18569;BME280;14780;48.316;-1.050;2023-04-23T12:11:11;97692.63;;;23.64;43.37
18569;BME280;14780;48.316;-1.050;2023-04-23T12:13:57;97705.75;;;23.62;43.44
18569;BME280;14780;48.316;-1.050;2023-04-23T12:16:44;97714.25;;;23.61;43.38
18569;BME280;14780;48.316;-1.050;2023-04-23T12:19:30;97717.59;;;23.58;43.33
18569;BME280;14780;48.316;-1.050;2023-04-23T12:22:15;97745.22;;;23.56;43.23
18569;BME280;14780;48.316;-1.050;2023-04-23T12:25:05;97756.72;;;23.53;43.12
18569;BME280;14780;48.316;-1.050;2023-04-23T12:27:58;97757.53;;;23.54;43.21
18569;BME280;14780;48.316;-1.050;2023-04-23T12:30:47;97757.31;;;23.50;43.08
18569;BME280;14780;48.316;-1.050;2023-04-23T12:33:31;97782.19;;;23.49;43.14
18569;BME280;14780;48.316;-1.050;2023-04-23T12:36:16;97775.94;;;23.48;43.30
18569;BME280;14780;48.316;-1.050;2023-04-23T12:39:20;97778.06;;;23.51;43.16
18569;BME280;14780;48.316;-1.050;2023-04-23T12:42:06;97786.03;;;23.48;43.29
18569;BME280;14780;48.316;-1.050;2023-04-23T12:44:53;97786.53;;;23.50;43.37
18569;BME280;14780;48.316;-1.050;2023-04-23T12:47:41;97784.63;;;23.50;43.49
18569;BME280;14780;48.316;-1.050;2023-04-23T12:50:25;97786.53;;;23.50;43.58
18569;BME280;14780;48.316;-1.050;2023-04-23T12:53:10;97786.25;;;23.51;43.54
18569;BME280;14780;48.316;-1.050;2023-04-23T12:55:55;97796.03;;;23.52;43.61
18569;BME280;14780;48.316;-1.050;2023-04-23T12:58:39;97794.13;;;23.53;43.55
18569;BME280;14780;48.316;-1.050;2023-04-23T13:01:24;97785.13;;;23.52;43.65
18569;BME280;14780;48.316;-1.050;2023-04-23T13:04:08;97784.50;;;23.55;43.66
18569;BME280;14780;48.316;-1.050;2023-04-23T13:06:54;97790.50;;;23.57;43.68
18569;BME280;14780;48.316;-1.050;2023-04-23T13:09:38;97782.00;;;23.59;43.69
18569;BME280;14780;48.316;-1.050;2023-04-23T13:12:23;97792.31;;;23.62;43.67
18569;BME280;14780;48.316;-1.050;2023-04-23T13:15:08;97794.75;;;23.63;43.66
18569;BME280;14780;48.316;-1.050;2023-04-23T13:17:55;97804.38;;;23.61;43.73
18569;BME280;14780;48.316;-1.050;2023-04-23T13:20:40;97802.44;;;23.61;43.70
18569;BME280;14780;48.316;-1.050;2023-04-23T13:23:25;97802.44;;;23.61;43.75
18569;BME280;14780;48.316;-1.050;2023-04-23T13:26:10;97795.34;;;23.60;43.63
18569;BME280;14780;48.316;-1.050;2023-04-23T13:28:54;97800.03;;;23.60;43.66
18569;BME280;14780;48.316;-1.050;2023-04-23T13:31:39;97799.19;;;23.59;43.69
18569;BME280;14780;48.316;-1.050;2023-04-23T13:34:24;97801.63;;;23.61;43.70
18569;BME280;14780;48.316;-1.050;2023-04-23T13:37:09;97808.72;;;23.62;43.66
18569;BME280;14780;48.316;-1.050;2023-04-23T13:39:54;97809.22;;;23.64;43.76
18569;BME280;14780;48.316;-1.050;2023-04-23T13:42:38;97802.97;;;23.63;43.76
18569;BME280;14780;48.316;-1.050;2023-04-23T13:45:23;97810.03;;;23.64;43.75
18569;BME280;14780;48.316;-1.050;2023-04-23T13:48:08;97816.59;;;23.63;43.69
18569;BME280;14780;48.316;-1.050;2023-04-23T13:50:53;97822.06;;;23.63;43.69
18569;BME280;14780;48.316;-1.050;2023-04-23T13:53:38;97828.94;;;23.61;43.82
18569;BME280;14780;48.316;-1.050;2023-04-23T13:56:24;97821.25;;;23.63;43.76
18569;BME280;14780;48.316;-1.050;2023-04-23T13:59:10;97843.09;;;23.63;43.71
18569;BME280;14780;48.316;-1.050;2023-04-23T14:01:56;97841.75;;;23.60;43.57
18569;BME280;14780;48.316;-1.050;2023-04-23T14:04:40;97842.88;;;23.59;43.52
18569;BME280;14780;48.316;-1.050;2023-04-23T14:07:25;97852.97;;;23.59;43.43
18569;BME280;14780;48.316;-1.050;2023-04-23T14:10:10;97852.97;;;23.59;43.68
18569;BME280;14780;48.316;-1.050;2023-04-23T14:12:55;97866.94;;;23.57;43.38
18569;BME280;14780;48.316;-1.050;2023-04-23T14:15:40;97865.63;;;23.55;43.40
18569;BME280;14780;48.316;-1.050;2023-04-23T14:18:26;97877.34;;;23.55;43.38
18569;BME280;14780;48.316;-1.050;2023-04-23T14:21:10;97885.34;;;23.52;43.30
18569;BME280;14780;48.316;-1.050;2023-04-23T14:24:08;97889.16;;;23.51;43.41
18569;BME280;14780;48.316;-1.050;2023-04-23T14:27:00;97880.19;;;23.50;43.29
18569;BME280;14780;48.316;-1.050;2023-04-23T14:32:35;97888.38;;;23.50;43.31
18569;BME280;14780;48.316;-1.050;2023-04-23T14:35:19;97889.97;;;23.51;43.34